Time;durP1;ratioP1;P1;durP2;ratioP2;P2;SDS_P1;SDS_P2;PMS_P1;PMS_P2;Temp;Humidity;BMP_temperature;BMP_pressure;BME280_temperature;BME280_humidity;BME280_pressure;Samples;Min_cycle;Max_cycle;Signal;HPM_P1;HPM_P2
2021/12/14 00:00:27;;;;;;;7.85;4.83;;;;;;;0.98;88.90;98302.81;1679623;85;21408;-76
2021/12/14 00:02:59;;;;;;;5.78;4.40;;;;;;;0.99;89.03;98301.98;1681226;85;21032;-78
2021/12/14 00:05:30;;;;;;;7.28;4.90;;;;;;;0.99;88.87;98296.77;1682344;85;20992;-77
2021/12/14 00:08:00;;;;;;;7.37;5.25;;;;;;;0.99;88.83;98294.16;1682563;85;20988;-78
2021/12/14 00:10:47;;;;;;;7.08;4.65;;;;;;;0.95;88.57;98296.27;1679969;85;21021;-78
2021/12/14 00:13:10;;;;;;;7.50;4.62;;;;;;;0.89;88.96;98295.33;1676193;85;21030;-78
2021/12/14 00:15:32;;;;;;;5.85;4.05;;;;;;;0.85;88.93;98290.92;1679824;85;20992;-77
2021/12/14 00:18:07;;;;;;;5.85;3.83;;;;;;;0.76;88.38;98301.22;1680865;85;20994;-78
2021/12/14 00:20:41;;;;;;;6.55;4.12;;;;;;;0.70;88.78;98301.14;1679047;85;21002;-78
2021/12/14 00:25:48;;;;;;;4.83;3.10;;;;;;;0.66;88.48;98301.49;1678987;84;21058;-78
2021/12/14 00:28:26;;;;;;;5.05;3.15;;;;;;;0.62;88.57;98306.23;1680465;85;21055;-77
2021/12/14 00:30:56;;;;;;;3.90;2.87;;;;;;;0.64;88.54;98313.65;1681535;85;21053;-77
2021/12/14 00:33:30;;;;;;;5.17;3.30;;;;;;;0.57;89.07;98321.80;1682296;85;21048;-77
2021/12/14 00:35:58;;;;;;;5.58;3.55;;;;;;;0.49;88.76;98323.40;1681763;85;21002;-77
2021/12/14 00:38:27;;;;;;;4.17;2.95;;;;;;;0.46;88.79;98319.02;1678877;85;21499;-77
2021/12/14 00:40:59;;;;;;;4.60;3.35;;;;;;;0.45;88.88;98319.88;1678867;85;21554;-77
2021/12/14 00:43:27;;;;;;;5.50;3.37;;;;;;;0.46;89.18;98325.98;1678464;85;21034;-77
2021/12/14 00:45:54;;;;;;;4.83;3.20;;;;;;;0.43;88.72;98323.30;1670555;84;21001;-77
2021/12/14 00:48:23;;;;;;;5.10;3.30;;;;;;;0.41;89.06;98328.48;1682109;85;21040;-77
2021/12/14 00:50:54;;;;;;;4.72;3.37;;;;;;;0.43;89.08;98327.22;1681740;83;21028;-78
2021/12/14 00:53:22;;;;;;;6.45;3.80;;;;;;;0.44;89.33;98323.34;1682255;85;21064;-78
2021/12/14 00:55:52;;;;;;;4.40;2.95;;;;;;;0.38;89.42;98328.46;1682210;85;21056;-78
2021/12/14 00:58:21;;;;;;;5.30;3.50;;;;;;;0.38;89.15;98333.67;1679117;85;21041;-78
2021/12/14 01:01:08;;;;;;;4.95;3.30;;;;;;;0.43;89.28;98332.44;1679406;85;21013;-78
2021/12/14 01:03:38;;;;;;;5.33;3.15;;;;;;;0.44;89.25;98331.16;1679319;84;21049;-78
2021/12/14 01:06:10;;;;;;;4.40;2.90;;;;;;;0.48;89.33;98334.69;1680054;85;20925;-78
2021/12/14 01:08:40;;;;;;;4.12;2.83;;;;;;;0.47;88.76;98331.22;1682510;85;21032;-78
2021/12/14 01:11:24;;;;;;;4.67;3.00;;;;;;;0.48;89.35;98334.69;1682791;85;21040;-78
2021/12/14 01:14:00;;;;;;;4.40;2.92;;;;;;;0.50;89.19;98333.00;1682710;85;21032;-78
2021/12/14 01:16:49;;;;;;;3.60;2.70;;;;;;;0.54;88.91;98343.05;1681424;85;21044;-77
2021/12/14 01:19:17;;;;;;;5.30;3.35;;;;;;;0.56;88.97;98338.31;1679714;84;21538;-77
2021/12/14 01:25:00;;;;;;;4.92;3.40;;;;;;;0.63;89.04;98333.63;1679228;84;21004;-78
2021/12/14 01:27:10;;;;;;;5.08;3.15;;;;;;;0.62;89.34;98333.19;1689806;84;21512;-78
2021/12/14 01:29:39;;;;;;;4.25;2.72;;;;;;;0.63;89.45;98327.10;1695970;83;21059;-77
2021/12/14 01:32:08;;;;;;;4.53;3.37;;;;;;;0.63;89.54;98321.03;1683045;84;21386;-77
2021/12/14 01:34:36;;;;;;;3.37;2.40;;;;;;;0.68;89.60;98323.70;1681815;84;21021;-77
2021/12/14 01:37:09;;;;;;;4.08;2.85;;;;;;;0.67;89.67;98324.14;1679641;85;21451;-77
2021/12/14 01:39:58;;;;;;;4.37;2.85;;;;;;;0.62;89.74;98321.44;1679056;85;21029;-77
2021/12/14 01:42:21;;;;;;;3.77;2.70;;;;;;;0.61;89.78;98318.80;1677582;85;21061;-77
2021/12/14 01:44:59;;;;;;;4.20;2.60;;;;;;;0.63;89.94;98316.67;1659232;84;21010;-77
2021/12/14 01:47:49;;;;;;;3.87;2.83;;;;;;;0.62;89.63;98318.84;1663179;85;21080;-77
2021/12/14 01:50:42;;;;;;;4.33;2.75;;;;;;;0.62;89.45;98320.14;1674718;84;21567;-77
2021/12/14 01:53:20;;;;;;;3.72;2.50;;;;;;;0.59;89.28;98312.28;1660211;85;21071;-77
2021/12/14 01:55:51;;;;;;;4.03;3.00;;;;;;;0.55;89.01;98318.72;1658331;85;21093;-77
2021/12/14 01:58:14;;;;;;;4.05;2.80;;;;;;;0.53;89.35;98319.99;1685224;85;21101;-77
2021/12/14 02:00:59;;;;;;;4.37;2.77;;;;;;;0.53;89.33;98322.60;1691973;85;21447;-77
2021/12/14 02:03:34;;;;;;;5.28;3.00;;;;;;;0.54;89.03;98324.34;1691140;85;21073;-77
2021/12/14 02:06:03;;;;;;;4.78;2.77;;;;;;;0.53;88.96;98325.20;1678364;85;21087;-77
2021/12/14 02:08:34;;;;;;;4.40;2.92;;;;;;;0.46;88.61;98328.14;1679423;85;21034;-77
2021/12/14 02:11:06;;;;;;;5.58;3.45;;;;;;;0.42;88.78;98325.47;1665157;85;21011;-77
2021/12/14 02:13:41;;;;;;;4.95;3.25;;;;;;;0.42;89.28;98325.47;1659318;86;21123;-78
2021/12/14 02:16:17;;;;;;;4.97;3.45;;;;;;;0.43;89.52;98328.52;1662024;86;21077;-78
2021/12/14 02:18:49;;;;;;;4.33;3.10;;;;;;;0.43;89.10;98328.52;1659534;85;21085;-78
2021/12/14 02:21:17;;;;;;;4.55;3.22;;;;;;;0.34;88.89;98326.65;1665322;84;21030;-78
2021/12/14 02:23:49;;;;;;;4.87;3.50;;;;;;;0.33;89.18;98332.28;1686886;84;21046;-78
2021/12/14 02:26:20;;;;;;;5.20;3.58;;;;;;;0.35;89.23;98326.68;1684759;84;21014;-78
2021/12/14 02:28:50;;;;;;;4.65;3.15;;;;;;;0.36;89.04;98328.84;1683204;85;21528;-78
2021/12/14 02:31:21;;;;;;;4.33;3.22;;;;;;;0.31;88.89;98327.89;1651423;85;21081;-78
2021/12/14 02:33:51;;;;;;;4.50;3.33;;;;;;;0.31;88.91;98320.95;1642509;87;21029;-78
2021/12/14 02:36:26;;;;;;;4.40;3.10;;;;;;;0.33;88.97;98330.97;1658620;86;20983;-78
2021/12/14 02:39:07;;;;;;;5.12;3.60;;;;;;;0.32;89.09;98327.92;1662770;86;21104;-78
2021/12/14 02:41:29;;;;;;;4.80;3.45;;;;;;;0.30;88.75;98330.94;1678414;84;21029;-78
2021/12/14 02:43:58;;;;;;;5.12;3.52;;;;;;;0.26;88.96;98333.04;1678723;84;21054;-78
2021/12/14 02:46:37;;;;;;;5.87;4.00;;;;;;;0.22;88.77;98334.72;1647323;86;21015;-78
2021/12/14 02:49:09;;;;;;;5.45;3.95;;;;;;;0.21;89.17;98335.99;1657793;86;21086;-78
2021/12/14 02:51:43;;;;;;;5.28;3.75;;;;;;;0.19;89.25;98332.46;1689939;83;21049;-78
2021/12/14 02:54:22;;;;;;;;;;;;;;;0.21;89.63;98335.99;1684973;85;21025;-78
2021/12/14 02:56:54;;;;;;;4.78;3.27;;;;;;;0.20;89.59;98334.24;1682529;85;20169;-77
2021/12/14 02:59:29;;;;;;;4.37;3.12;;;;;;;0.19;89.88;98325.53;1672600;85;21048;-79
2021/12/14 03:01:58;;;;;;;;;;;;;;;0.23;90.14;98331.67;1668648;85;21005;-78
2021/12/14 03:04:25;;;;;;;5.42;3.83;;;;;;;0.27;90.11;98338.70;1672437;85;20105;-78
2021/12/14 03:06:57;;;;;;;5.28;3.62;;;;;;;0.21;90.12;98330.33;1682418;85;21021;-79
2021/12/14 03:09:54;;;;;;;5.42;3.70;;;;;;;0.19;90.34;98329.86;1682392;85;21076;-78
2021/12/14 03:12:17;;;;;;;5.97;3.98;;;;;;;0.11;90.06;98331.92;1653195;87;21043;-78
2021/12/14 03:14:57;;;;;;;6.67;4.53;;;;;;;0.06;90.08;98336.59;1654954;87;21067;-78
2021/12/14 03:17:25;;;;;;;6.78;4.47;;;;;;;0.08;90.38;98339.67;1654186;87;21051;-78
2021/12/14 03:19:59;;;;;;;7.75;4.83;;;;;;;0.10;90.12;98340.59;1659107;85;21002;-78
2021/12/14 03:22:32;;;;;;;;;;;;;;;0.09;90.17;98340.56;1681367;85;21033;-78
2021/12/14 03:24:59;;;;;;;7.20;4.67;;;;;;;0.08;90.02;98340.97;1679024;85;20195;-78
2021/12/14 03:27:27;;;;;;;10.38;5.55;;;;;;;0.05;89.78;98336.14;1678757;85;21057;-78
2021/12/14 03:29:54;;;;;;;8.08;4.92;;;;;;;0.06;90.00;98337.89;1679457;85;20992;-78
2021/12/14 03:32:21;;;;;;;6.15;4.40;;;;;;;0.06;89.62;98337.48;1682343;85;21124;-77
2021/12/14 03:34:49;;;;;;;6.12;4.40;;;;;;;0.02;89.53;98334.77;1679662;85;21042;-78
2021/12/14 03:37:23;;;;;;;7.83;5.25;;;;;;;-0.02;89.34;98337.34;1658649;85;22154;-78
2021/12/14 03:39:57;;;;;;;8.73;5.30;;;;;;;-0.03;89.52;98344.67;1680518;85;21044;-78
2021/12/14 03:42:36;;;;;;;7.60;5.30;;;;;;;-0.07;89.51;98342.00;1682288;85;21072;-78
2021/12/14 03:44:58;;;;;;;7.67;5.12;;;;;;;-0.07;89.88;98337.68;1667768;84;20999;-77
2021/12/14 03:47:31;;;;;;;10.00;5.33;;;;;;;-0.06;89.95;98337.23;1668032;85;20994;-78
2021/12/14 03:50:17;;;;;;;8.95;5.37;;;;;;;-0.04;89.98;98339.47;1678884;84;21480;-78
2021/12/14 03:52:44;;;;;;;9.55;5.47;;;;;;;-0.03;89.57;98339.91;1677172;85;21546;-77
2021/12/14 03:55:26;;;;;;;8.58;5.22;;;;;;;-0.02;89.88;98343.85;1677957;85;21037;-77
2021/12/14 03:57:55;;;;;;;10.20;5.87;;;;;;;0.03;90.07;98345.23;1678041;84;21443;-77
2021/12/14 04:00:38;;;;;;;8.15;5.35;;;;;;;0.07;89.72;98347.45;1651890;86;21057;-77
2021/12/14 04:03:10;;;;;;;10.00;5.83;;;;;;;0.08;89.61;98350.54;1657227;85;21116;-77
2021/12/14 04:05:47;;;;;;;9.03;5.62;;;;;;;0.04;89.75;98356.54;1658249;85;21149;-77
2021/12/14 04:08:17;;;;;;;8.53;5.60;;;;;;;0.07;89.71;98355.27;1704085;84;21025;-77
2021/12/14 04:10:49;;;;;;;12.20;6.65;;;;;;;0.03;89.71;98360.00;1692375;83;21101;-77
2021/12/14 04:13:27;;;;;;;8.73;6.28;;;;;;;0.01;89.60;98356.47;1657870;85;21017;-77
2021/12/14 04:15:57;;;;;;;8.60;6.08;;;;;;;-0.05;89.32;98359.83;1680563;85;21033;-78
2021/12/14 04:18:27;;;;;;;11.20;6.17;;;;;;;-0.08;89.39;98351.97;1678096;84;20982;-77
2021/12/14 04:20:55;;;;;;;10.78;6.03;;;;;;;-0.15;89.54;98351.87;1677380;84;21809;-77
2021/12/14 04:23:28;;;;;;;8.20;5.50;;;;;;;-0.19;89.51;98353.06;1680465;85;21049;-78
2021/12/14 04:26:00;;;;;;;10.85;6.40;;;;;;;-0.23;89.64;98354.73;1680421;85;21100;-78
2021/12/14 04:28:35;;;;;;;12.95;6.97;;;;;;;-0.25;90.02;98343.39;1677210;85;21005;-78
2021/12/14 04:31:02;;;;;;;10.68;6.42;;;;;;;-0.24;90.15;98350.80;1676511;85;21053;-78
2021/12/14 04:33:34;;;;;;;14.15;6.95;;;;;;;-0.25;90.34;98355.11;1678914;84;21018;-78
2021/12/14 04:36:09;;;;;;;15.63;7.33;;;;;;;-0.26;89.80;98353.36;1676914;85;21069;-78
2021/12/14 04:38:47;;;;;;;13.55;7.30;;;;;;;-0.29;90.23;98359.39;1680363;84;21101;-77
2021/12/14 04:52:19;;;;;;;9.43;6.53;;;;;;;-0.55;90.19;98371.47;1699108;83;21054;-77
2021/12/14 04:54:53;;;;;;;11.43;7.20;;;;;;;-0.58;90.29;98375.30;1677457;84;21456;-79
2021/12/14 04:57:43;;;;;;;11.03;7.47;;;;;;;-0.59;90.38;98368.34;1647158;86;21007;-79
2021/12/14 05:00:32;;;;;;;11.65;7.35;;;;;;;-0.58;90.07;98375.30;1643652;87;21550;-79
2021/12/14 05:03:05;;;;;;;12.30;7.55;;;;;;;-0.58;90.13;98373.99;1676045;84;21457;-79
2021/12/14 05:05:45;;;;;;;13.78;8.93;;;;;;;-0.54;90.16;98373.66;1682382;85;21028;-79
2021/12/14 05:11:12;;;;;;;17.90;9.83;;;;;;;-0.53;90.17;98375.41;1655004;87;21159;-78
2021/12/14 05:13:47;;;;;;;14.65;8.75;;;;;;;-0.49;89.97;98377.23;1660449;84;21073;-77
2021/12/14 05:16:26;;;;;;;18.30;10.05;;;;;;;-0.49;90.23;98382.45;1680546;85;21048;-78
2021/12/14 05:18:58;;;;;;;13.00;7.62;;;;;;;-0.47;90.09;98380.73;1682602;85;20996;-77
2021/12/14 05:21:30;;;;;;;11.95;7.45;;;;;;;-0.44;90.10;98383.42;1682288;85;21067;-77
2021/12/14 05:23:58;;;;;;;11.30;7.22;;;;;;;;;;1659073;85;21470;-77
2021/12/14 05:26:26;;;;;;;10.53;6.42;;;;;;;-0.42;90.15;98387.33;1678941;85;21049;-77
2021/12/14 05:28:53;;;;;;;10.75;7.17;;;;;;;-0.46;89.53;98386.39;1680855;84;20986;-77
2021/12/14 05:31:22;;;;;;;11.53;7.15;;;;;;;-0.51;90.17;98381.95;1682498;85;21415;-78
2021/12/14 05:33:50;;;;;;;10.45;6.58;;;;;;;-0.50;90.09;98391.52;1681399;85;21013;-77
2021/12/14 05:36:26;;;;;;;11.15;7.00;;;;;;;-0.51;90.18;98389.77;1678991;85;21061;-77
2021/12/14 05:39:19;;;;;;;10.80;7.03;;;;;;;-0.55;90.26;98390.99;1679063;85;21041;-77
2021/12/14 05:44:22;;;;;;;11.38;6.95;;;;;;;-0.61;90.08;98416.02;1680574;84;21096;-77
2021/12/14 05:46:55;;;;;;;11.08;6.55;;;;;;;-0.63;90.02;98402.95;1659374;84;20975;-77
2021/12/14 05:49:28;;;;;;;11.75;6.58;;;;;;;-0.61;90.05;98422.52;1654581;86;21066;-78
2021/12/14 05:51:58;;;;;;;10.98;6.28;;;;;;;-0.62;90.26;98418.16;1655718;86;21111;-78
2021/12/14 05:54:30;;;;;;;12.63;7.17;;;;;;;-0.58;90.71;98419.55;1657135;86;21045;-78
2021/12/14 05:57:02;;;;;;;9.88;6.50;;;;;;;-0.50;90.79;98416.25;1683322;84;21417;-78
2021/12/14 05:59:33;;;;;;;12.30;6.80;;;;;;;-0.43;90.88;98418.13;1656064;86;21111;-78
2021/12/14 06:02:03;;;;;;;11.05;7.30;;;;;;;-0.33;90.98;98416.61;1655360;86;21485;-78
2021/12/14 06:04:37;;;;;;;11.55;7.20;;;;;;;-0.24;91.05;98418.52;1668029;84;21065;-77
2021/12/14 06:07:07;;;;;;;11.63;7.08;;;;;;;-0.18;91.03;98421.24;1679336;85;21470;-78
2021/12/14 06:09:42;;;;;;;12.88;7.72;;;;;;;-0.14;91.23;98422.66;1679093;85;21049;-77
2021/12/14 06:12:24;;;;;;;13.50;8.65;;;;;;;-0.10;91.05;98419.68;1679058;84;21503;-77
2021/12/14 06:14:55;;;;;;;17.02;10.00;;;;;;;-0.07;90.95;98425.38;1696959;83;21016;-77
2021/12/14 06:17:30;;;;;;;30.95;17.77;;;;;;;-0.07;90.64;98427.98;1685356;83;21060;-78
2021/12/14 06:20:05;;;;;;;22.98;13.20;;;;;;;-0.12;90.48;98431.81;1682751;84;21055;-77
2021/12/14 06:22:32;;;;;;;18.30;11.80;;;;;;;-0.15;90.40;98443.05;1683034;84;21020;-77
2021/12/14 06:25:11;;;;;;;16.95;10.03;;;;;;;-0.09;90.68;98447.93;1684879;83;21020;-78
2021/12/14 06:27:38;;;;;;;15.53;9.53;;;;;;;-0.08;90.41;98444.47;1679157;85;21066;-78
2021/12/14 06:30:15;;;;;;;17.10;8.90;;;;;;;-0.07;90.57;98444.92;1680198;84;21068;-78
2021/12/14 06:33:00;;;;;;;12.63;7.90;;;;;;;-0.01;90.54;98446.34;1679576;84;21030;-78
2021/12/14 06:35:36;;;;;;;12.93;8.35;;;;;;;-0.04;89.83;98451.52;1682904;84;21442;-77
2021/12/14 06:38:28;;;;;;;14.90;8.95;;;;;;;-0.05;89.52;98444.52;1682571;85;21004;-77
2021/12/14 06:41:15;;;;;;;13.32;7.55;;;;;;;-0.02;89.87;98447.19;1682815;85;21028;-78
2021/12/14 06:43:57;;;;;;;15.03;8.40;;;;;;;-0.01;89.74;98445.03;1682290;85;21036;-78
2021/12/14 06:46:38;;;;;;;16.50;8.68;;;;;;;0.01;89.56;98447.27;1679862;85;21082;-78
2021/12/14 06:49:15;;;;;;;17.80;8.88;;;;;;;0.03;89.81;98440.34;1679272;85;21025;-78
2021/12/14 06:51:48;;;;;;;15.78;9.10;;;;;;;0.05;89.61;98438.66;1686446;82;21103;-77
2021/12/14 06:54:25;;;;;;;14.00;8.68;;;;;;;0.07;89.22;98437.37;1675791;85;21029;-77
2021/12/14 06:57:04;;;;;;;15.60;8.53;;;;;;;0.07;89.28;98438.26;1676621;85;21483;-77
2021/12/14 06:59:39;;;;;;;11.35;6.60;;;;;;;0.09;88.96;98439.16;1678379;85;21041;-78
2021/12/14 07:02:11;;;;;;;12.75;7.17;;;;;;;0.11;88.26;98448.31;1678024;85;21264;-78
2021/12/14 07:04:51;;;;;;;14.55;7.75;;;;;;;0.13;88.36;98432.30;1678291;85;21037;-77
2021/12/14 07:07:26;;;;;;;17.12;8.60;;;;;;;0.15;88.33;98450.55;1667402;84;21035;-78
2021/12/14 07:10:01;;;;;;;14.47;8.28;;;;;;;0.13;88.17;98447.49;1682443;85;21016;-77
2021/12/14 07:12:33;;;;;;;11.10;7.25;;;;;;;0.19;88.69;98450.66;1675659;85;21107;-78
2021/12/14 07:15:15;;;;;;;14.23;8.43;;;;;;;0.24;88.61;98445.52;1684709;84;20997;-78
2021/12/14 07:17:50;;;;;;;13.93;7.70;;;;;;;0.26;88.79;98445.14;1672690;85;20965;-78
2021/12/14 07:20:42;;;;;;;12.60;7.55;;;;;;;0.33;88.82;98451.35;1656832;85;21104;-78
2021/12/14 07:23:26;;;;;;;14.18;8.15;;;;;;;0.37;88.63;98451.84;1674318;85;21497;-78
2021/12/14 07:26:01;;;;;;;13.38;7.87;;;;;;;0.40;88.83;98446.69;1676606;85;21032;-78
2021/12/14 07:28:36;;;;;;;13.78;7.58;;;;;;;0.49;88.96;98442.06;1680705;85;21016;-78
2021/12/14 07:31:14;;;;;;;14.58;8.18;;;;;;;0.57;88.77;98455.23;1681340;85;21012;-77
2021/12/14 07:33:54;;;;;;;13.20;8.10;;;;;;;0.61;88.76;98455.75;1681278;85;21012;-78
2021/12/14 07:36:39;;;;;;;14.30;8.53;;;;;;;0.69;88.73;98462.41;1677197;85;21027;-79
2021/12/14 07:39:13;;;;;;;14.38;7.00;;;;;;;0.72;88.58;98452.92;1659863;85;21420;-78
2021/12/14 07:41:53;;;;;;;12.80;7.75;;;;;;;0.81;88.70;98453.50;1679189;85;21053;-78
2021/12/14 07:44:31;;;;;;;13.58;8.03;;;;;;;0.89;88.64;98451.02;1672498;85;21065;-78
2021/12/14 07:47:18;;;;;;;12.55;8.03;;;;;;;1.01;88.66;98456.87;1665069;84;21064;-79
2021/12/14 07:49:54;;;;;;;11.15;7.15;;;;;;;1.06;88.38;98455.20;1680985;85;21104;-80
2021/12/14 07:52:35;;;;;;;10.63;7.05;;;;;;;1.08;88.02;98456.55;1688012;84;20972;-80
2021/12/14 07:55:17;;;;;;;13.62;7.70;;;;;;;1.15;88.25;98455.36;1696566;84;20977;-79
2021/12/14 07:57:47;;;;;;;14.15;8.33;;;;;;;1.21;88.32;98463.73;1693619;84;21058;-80
2021/12/14 08:00:28;;;;;;;13.98;8.85;;;;;;;1.29;88.13;98463.84;1697431;84;21032;-79
2021/12/14 08:03:01;;;;;;;17.95;9.35;;;;;;;1.36;88.12;98470.04;1696050;84;20968;-80
2021/12/14 08:05:36;;;;;;;16.40;8.93;;;;;;;1.40;87.65;98470.09;1695575;84;21027;-79
2021/12/14 08:08:18;;;;;;;18.60;9.78;;;;;;;1.43;87.49;98467.95;1695746;84;21008;-79
2021/12/14 08:10:57;;;;;;;17.85;10.28;;;;;;;1.42;87.12;98464.90;1695785;84;20985;-79
2021/12/14 08:13:24;;;;;;;17.83;10.07;;;;;;;1.21;84.11;98471.56;1694646;84;22067;-80
2021/12/14 08:15:56;;;;;;;17.55;9.58;;;;;;;1.04;84.75;98477.36;1694693;84;21040;-80
2021/12/14 08:18:35;;;;;;;20.57;11.97;;;;;;;1.01;86.34;98481.25;1694581;84;21036;-80
2021/12/14 08:21:09;;;;;;;20.48;11.43;;;;;;;1.03;86.52;98484.75;1690302;85;21031;-80
2021/12/14 08:23:44;;;;;;;21.23;12.65;;;;;;;1.01;86.22;98485.17;1694660;84;20944;-81
2021/12/14 08:26:25;;;;;;;19.98;10.98;;;;;;;0.99;86.11;98485.99;1694879;84;20996;-80
2021/12/14 08:29:02;;;;;;;21.05;11.85;;;;;;;0.91;85.41;98493.25;1697923;84;20979;-80
2021/12/14 08:31:51;;;;;;;19.92;10.75;;;;;;;0.87;86.20;98481.00;1697986;84;21134;-80
2021/12/14 08:34:35;;;;;;;22.37;11.48;;;;;;;0.85;86.30;98491.84;1687200;84;21045;-81
2021/12/14 08:37:17;;;;;;;20.75;10.85;;;;;;;0.81;85.81;98498.27;1691256;85;21056;-80
2021/12/14 08:39:58;;;;;;;18.15;10.23;;;;;;;0.90;86.71;98503.24;1696767;83;21460;-80
2021/12/14 08:42:34;;;;;;;15.68;8.33;;;;;;;0.95;86.15;98504.61;1697480;84;21584;-80
2021/12/14 08:45:02;;;;;;;13.98;7.78;;;;;;;0.86;84.73;98502.73;1696519;84;20972;-80
2021/12/14 08:47:39;;;;;;;14.55;7.78;;;;;;;0.85;84.65;98510.11;1673123;84;20999;-81
2021/12/14 08:50:10;;;;;;;12.82;7.67;;;;;;;0.96;86.02;98505.09;1664971;86;21130;-80
2021/12/14 08:52:40;;;;;;;18.37;9.20;;;;;;;1.05;86.39;98506.53;1680913;83;20969;-80
2021/12/14 08:55:12;;;;;;;14.60;8.28;;;;;;;1.19;87.02;98504.58;1681486;85;21016;-81
2021/12/14 08:57:41;;;;;;;17.02;9.70;;;;;;;1.27;86.21;98505.59;1682209;85;21032;-81
2021/12/14 09:00:16;;;;;;;15.38;8.60;;;;;;;1.34;85.17;98507.87;1680918;85;21058;-82
2021/12/14 09:02:45;;;;;;;12.90;7.97;;;;;;;1.40;85.80;98506.66;1679415;85;20997;-81
2021/12/14 09:05:17;;;;;;;13.50;8.30;;;;;;;1.41;83.81;98499.72;1679186;84;21435;-81
2021/12/14 09:07:45;;;;;;;13.53;7.87;;;;;;;1.43;83.71;98503.22;1675506;84;21497;-81
2021/12/14 09:10:17;;;;;;;12.10;7.35;;;;;;;1.38;82.51;98495.33;1663829;85;21106;-81
2021/12/14 09:12:48;;;;;;;15.10;8.58;;;;;;;1.41;82.16;98492.73;1675840;85;21096;-81
2021/12/14 09:15:20;;;;;;;13.70;8.48;;;;;;;1.53;83.93;98499.03;1675864;85;21052;-80
2021/12/14 09:17:48;;;;;;;15.80;9.20;;;;;;;1.64;84.26;98494.83;1683175;83;21016;-79
2021/12/14 09:20:30;;;;;;;16.07;9.40;;;;;;;1.68;82.88;98492.71;1682140;85;21044;-78
2021/12/14 09:23:02;;;;;;;15.45;9.20;;;;;;;1.81;83.96;98490.25;1681346;84;21500;-77
2021/12/14 09:25:30;;;;;;;16.20;9.20;;;;;;;1.90;83.86;98487.77;1680907;85;21383;-75
2021/12/14 09:28:01;;;;;;;15.18;9.18;;;;;;;1.93;81.63;98483.89;1682156;85;21044;-75
2021/12/14 09:30:33;;;;;;;15.90;9.28;;;;;;;1.98;82.20;98483.52;1680198;85;21044;-76
2021/12/14 09:33:01;;;;;;;18.07;11.28;;;;;;;2.08;83.09;98484.95;1670081;85;21029;-76
2021/12/14 09:35:29;;;;;;;14.80;9.68;;;;;;;2.14;82.72;98477.59;1682409;84;20999;-77
2021/12/14 09:37:58;;;;;;;18.95;10.78;;;;;;;2.18;82.76;98477.66;1701489;84;21023;-77
2021/12/14 09:40:30;;;;;;;15.70;9.08;;;;;;;2.26;82.79;98482.09;1701938;84;21031;-75
2021/12/14 09:43:00;;;;;;;13.88;8.38;;;;;;;2.30;82.76;98473.42;1701275;83;20971;-77
2021/12/14 09:45:34;;;;;;;12.93;8.10;;;;;;;2.29;82.32;98477.80;1701387;84;21052;-77
2021/12/14 09:48:05;;;;;;;16.10;9.40;;;;;;;2.27;80.93;98472.07;1692094;84;21380;-77
2021/12/14 09:50:36;;;;;;;16.73;8.85;;;;;;;2.20;81.26;98464.61;1681946;84;21394;-79
2021/12/14 09:53:07;;;;;;;13.80;9.00;;;;;;;2.08;80.65;98466.65;1681912;84;21021;-75
2021/12/14 09:55:39;;;;;;;14.00;9.25;;;;;;;1.94;80.54;98462.12;1680724;85;21051;-77
2021/12/14 09:58:11;;;;;;;15.72;9.60;;;;;;;1.99;81.36;98466.09;1676617;85;21045;-77
2021/12/14 10:00:43;;;;;;;16.00;9.55;;;;;;;1.93;81.25;98460.38;1688534;84;21422;-77
2021/12/14 10:03:11;;;;;;;15.05;9.15;;;;;;;1.85;81.45;98452.84;1660202;85;20996;-77
2021/12/14 10:05:49;;;;;;;17.07;10.25;;;;;;;1.66;81.30;98445.21;1681537;83;20949;-75
2021/12/14 10:08:21;;;;;;;16.95;9.85;;;;;;;1.69;81.90;98451.77;1684167;83;21032;-75
2021/12/14 10:10:58;;;;;;;13.05;8.40;;;;;;;1.64;82.07;98452.13;1684276;83;21443;-76
2021/12/14 10:13:21;;;;;;;13.45;8.48;;;;;;;1.57;81.51;98452.47;1681361;85;21454;-76
2021/12/14 10:15:53;;;;;;;14.40;7.95;;;;;;;1.64;82.17;98454.33;1679288;83;21022;-76
2021/12/14 10:18:25;;;;;;;13.00;8.30;;;;;;;1.68;81.18;98448.70;1678622;84;21084;-77
2021/12/14 10:21:06;;;;;;;15.10;8.85;;;;;;;1.70;81.63;98447.88;1669954;85;20993;-75
2021/12/14 10:23:34;;;;;;;14.93;9.93;;;;;;;1.74;81.73;98454.45;1678917;84;20944;-75
2021/12/14 10:26:02;;;;;;;14.00;8.48;;;;;;;1.83;81.85;98444.98;1680558;84;21421;-75
2021/12/14 10:28:33;;;;;;;12.37;7.75;;;;;;;1.76;80.45;98445.78;1677440;84;22319;-74
2021/12/14 10:31:08;;;;;;;15.38;8.93;;;;;;;1.82;80.52;98446.27;1663174;85;21423;-75
2021/12/14 10:33:43;;;;;;;13.18;7.97;;;;;;;1.88;81.34;98445.48;1666218;84;20989;-75
2021/12/14 10:36:30;;;;;;;10.82;6.37;;;;;;;1.86;80.53;98432.83;1686087;84;21016;-76
2021/12/14 10:39:07;;;;;;;12.13;8.08;;;;;;;1.82;79.76;98440.63;1674991;84;21051;-75
2021/12/14 10:44:16;;;;;;;11.88;7.58;;;;;;;1.86;81.09;98435.45;1680676;84;21427;-75
2021/12/14 10:46:48;;;;;;;15.88;9.13;;;;;;;1.94;81.37;98429.44;1679158;84;21427;-75
2021/12/14 10:49:18;;;;;;;13.30;8.65;;;;;;;2.01;81.50;98430.40;1679365;85;21577;-75
2021/12/14 10:51:49;;;;;;;16.73;9.95;;;;;;;2.07;81.55;98430.46;1680103;84;21055;-75
2021/12/14 10:54:18;;;;;;;18.73;10.68;;;;;;;2.10;81.49;98427.89;1680233;84;21044;-76
2021/12/14 10:56:56;;;;;;;15.23;9.83;;;;;;;2.11;81.33;98426.14;1665376;84;22141;-76
2021/12/14 10:59:28;;;;;;;18.60;10.72;;;;;;;2.07;80.99;98421.73;1675078;85;21029;-76
2021/12/14 11:01:56;;;;;;;16.25;10.80;;;;;;;2.07;81.36;98421.31;1678791;85;21527;-75
2021/12/14 11:04:37;;;;;;;16.37;9.73;;;;;;;2.00;81.29;98414.69;1680232;84;20971;-76
2021/12/14 11:07:02;;;;;;;18.32;11.60;;;;;;;2.04;81.43;98429.55;1678579;84;21102;-74
2021/12/14 11:09:43;;;;;;;19.12;11.40;;;;;;;2.13;81.54;98430.08;1675084;84;20986;-74
2021/12/14 11:12:18;;;;;;;18.42;10.80;;;;;;;2.15;81.52;98431.00;1681003;85;21032;-76
2021/12/14 11:14:48;;;;;;;19.02;11.12;;;;;;;2.13;81.27;98424.85;1668145;85;21030;-76
2021/12/14 11:20:19;;;;;;;12.13;7.70;;;;;;;2.03;80.47;98422.58;1677558;84;21020;-76
2021/12/14 11:23:00;;;;;;;14.75;8.55;;;;;;;1.96;80.99;98422.93;1676842;84;21063;-76
2021/12/14 11:25:30;;;;;;;11.90;8.38;;;;;;;1.95;81.12;98418.57;1677052;84;21005;-77
2021/12/14 11:28:06;;;;;;;16.67;8.35;;;;;;;1.90;80.50;98413.27;1669928;84;21096;-76
2021/12/14 11:30:45;;;;;;;13.62;8.48;;;;;;;1.86;81.26;98412.78;1691490;84;21083;-76
2021/12/14 11:33:29;;;;;;;15.70;9.70;;;;;;;1.90;81.56;98414.99;1680460;84;21076;-76
2021/12/14 11:36:13;;;;;;;14.63;9.38;;;;;;;1.94;82.03;98412.87;1676814;83;22259;-75
2021/12/14 11:38:48;;;;;;;15.85;9.08;;;;;;;1.95;81.74;98419.88;1697917;84;21044;-75
2021/12/14 11:41:29;;;;;;;14.05;8.13;;;;;;;2.00;82.03;98417.30;1701015;84;20983;-75
2021/12/14 11:44:04;;;;;;;14.80;8.53;;;;;;;2.04;82.01;98414.73;1684398;84;21095;-75
2021/12/14 11:46:33;;;;;;;13.55;8.50;;;;;;;2.09;82.51;98401.31;1679010;84;20997;-76
2021/12/14 11:49:04;;;;;;;15.15;8.68;;;;;;;2.16;82.70;98410.52;1676814;85;21017;-75
2021/12/14 11:51:34;;;;;;;12.47;7.22;;;;;;;2.22;82.22;98407.55;1679524;85;21020;-76
2021/12/14 11:54:01;;;;;;;12.37;8.00;;;;;;;2.18;79.72;98412.28;1678418;83;21003;-76
2021/12/14 11:56:32;;;;;;;14.58;8.30;;;;;;;2.26;81.75;98408.86;1678856;85;21033;-75
2021/12/14 11:59:04;;;;;;;13.43;8.83;;;;;;;2.27;82.15;98402.34;1674494;85;20989;-77
2021/12/14 12:01:46;;;;;;;13.50;8.13;;;;;;;2.20;80.31;98405.33;1677357;85;22112;-77
2021/12/14 12:04:20;;;;;;;12.82;8.08;;;;;;;2.01;80.40;98401.64;1679347;85;21032;-76
2021/12/14 12:09:46;;;;;;;16.50;8.63;;;;;;;1.98;81.45;98397.67;1678078;85;20998;-76
2021/12/14 12:12:30;;;;;;;14.33;8.28;;;;;;;2.06;81.98;98401.27;1651319;85;21014;-75
2021/12/14 12:15:20;;;;;;;14.80;9.18;;;;;;;2.10;82.03;98400.44;1678631;85;21462;-75
2021/12/14 12:17:51;;;;;;;19.35;10.70;;;;;;;2.12;81.77;98399.16;1679303;84;21025;-76
2021/12/14 12:20:49;;;;;;;18.65;10.18;;;;;;;1.92;81.00;98398.92;1682196;84;20968;-76
2021/12/14 12:23:24;;;;;;;22.82;12.07;;;;;;;1.84;81.20;98388.38;1656748;83;21298;-75
2021/12/14 12:26:01;;;;;;;20.80;11.48;;;;;;;1.87;81.96;98395.38;1681659;84;20968;-76
2021/12/14 12:28:33;;;;;;;19.20;10.90;;;;;;;1.88;82.12;98401.93;1682051;85;21020;-75
2021/12/14 12:31:16;;;;;;;17.92;10.10;;;;;;;1.87;81.99;98395.38;1679444;85;21028;-76
2021/12/14 12:33:48;;;;;;;19.62;10.70;;;;;;;1.88;82.26;98399.31;1676164;85;21053;-76
2021/12/14 12:36:26;;;;;;;20.08;11.85;;;;;;;1.92;82.34;98402.42;1697768;83;21175;-76